sensor_id;sensor_type;location;lat;lon;timestamp;temperature;humidity
35746;DHT22;21870;42.812;74.628;2022-07-21T00:01:10;25.20;68.90
35746;DHT22;21870;42.812;74.628;2022-07-21T00:03:36;25.20;69.00
35746;DHT22;21870;42.812;74.628;2022-07-21T00:06:03;25.20;69.20
35746;DHT22;21870;42.812;74.628;2022-07-21T00:08:29;25.20;69.30
35746;DHT22;21870;42.812;74.628;2022-07-21T00:10:55;25.10;69.40
35746;DHT22;21870;42.812;74.628;2022-07-21T00:13:21;25.10;69.40
35746;DHT22;21870;42.812;74.628;2022-07-21T00:15:48;25.10;69.60
35746;DHT22;21870;42.812;74.628;2022-07-21T00:18:15;25.20;70.00
35746;DHT22;21870;42.812;74.628;2022-07-21T00:20:41;25.20;70.00
35746;DHT22;21870;42.812;74.628;2022-07-21T00:23:07;25.20;69.80
35746;DHT22;21870;42.812;74.628;2022-07-21T00:25:33;25.20;70.00
35746;DHT22;21870;42.812;74.628;2022-07-21T00:28:00;25.10;70.40
35746;DHT22;21870;42.812;74.628;2022-07-21T00:30:26;25.10;70.30
35746;DHT22;21870;42.812;74.628;2022-07-21T00:32:52;25.20;70.60
35746;DHT22;21870;42.812;74.628;2022-07-21T00:35:19;25.20;70.70
35746;DHT22;21870;42.812;74.628;2022-07-21T00:37:48;25.30;70.90
35746;DHT22;21870;42.812;74.628;2022-07-21T00:40:14;25.30;70.90
35746;DHT22;21870;42.812;74.628;2022-07-21T00:42:41;25.40;70.90
35746;DHT22;21870;42.812;74.628;2022-07-21T00:45:08;25.40;70.70
35746;DHT22;21870;42.812;74.628;2022-07-21T00:47:35;25.50;70.60
35746;DHT22;21870;42.812;74.628;2022-07-21T00:50:07;25.60;70.40
35746;DHT22;21870;42.812;74.628;2022-07-21T00:52:34;25.70;70.60
35746;DHT22;21870;42.812;74.628;2022-07-21T00:55:00;25.80;70.40
35746;DHT22;21870;42.812;74.628;2022-07-21T00:57:27;25.80;70.10
35746;DHT22;21870;42.812;74.628;2022-07-21T00:59:54;25.90;70.30
35746;DHT22;21870;42.812;74.628;2022-07-21T01:02:20;25.90;70.30
35746;DHT22;21870;42.812;74.628;2022-07-21T01:04:46;26.00;70.90
35746;DHT22;21870;42.812;74.628;2022-07-21T01:07:13;26.10;69.90
35746;DHT22;21870;42.812;74.628;2022-07-21T01:09:39;26.10;69.90
35746;DHT22;21870;42.812;74.628;2022-07-21T01:12:08;26.30;70.00
35746;DHT22;21870;42.812;74.628;2022-07-21T01:14:35;26.40;69.90
35746;DHT22;21870;42.812;74.628;2022-07-21T01:17:02;26.50;70.10
35746;DHT22;21870;42.812;74.628;2022-07-21T01:19:29;26.60;70.20
35746;DHT22;21870;42.812;74.628;2022-07-21T01:21:55;26.70;69.60
35746;DHT22;21870;42.812;74.628;2022-07-21T01:24:21;26.80;69.50
35746;DHT22;21870;42.812;74.628;2022-07-21T01:26:49;27.00;69.20
35746;DHT22;21870;42.812;74.628;2022-07-21T01:29:16;27.10;69.30
35746;DHT22;21870;42.812;74.628;2022-07-21T01:31:44;27.30;68.90
35746;DHT22;21870;42.812;74.628;2022-07-21T01:34:11;27.50;69.00
35746;DHT22;21870;42.812;74.628;2022-07-21T01:36:38;27.60;68.90
35746;DHT22;21870;42.812;74.628;2022-07-21T01:39:05;27.70;68.70
35746;DHT22;21870;42.812;74.628;2022-07-21T01:41:50;27.80;69.00
35746;DHT22;21870;42.812;74.628;2022-07-21T01:44:16;27.90;68.70
35746;DHT22;21870;42.812;74.628;2022-07-21T01:46:45;28.00;69.20
35746;DHT22;21870;42.812;74.628;2022-07-21T01:49:14;28.10;69.10
35746;DHT22;21870;42.812;74.628;2022-07-21T01:51:40;28.30;68.90
35746;DHT22;21870;42.812;74.628;2022-07-21T01:54:07;28.40;68.50
35746;DHT22;21870;42.812;74.628;2022-07-21T01:56:35;28.60;68.90
35746;DHT22;21870;42.812;74.628;2022-07-21T01:59:02;28.70;68.60
35746;DHT22;21870;42.812;74.628;2022-07-21T02:01:32;28.90;68.00
35746;DHT22;21870;42.812;74.628;2022-07-21T02:04:00;29.10;67.50
35746;DHT22;21870;42.812;74.628;2022-07-21T02:06:28;29.30;67.40
35746;DHT22;21870;42.812;74.628;2022-07-21T02:08:54;29.40;67.00
35746;DHT22;21870;42.812;74.628;2022-07-21T02:11:21;29.50;66.40
35746;DHT22;21870;42.812;74.628;2022-07-21T02:13:48;29.60;66.00
35746;DHT22;21870;42.812;74.628;2022-07-21T02:16:14;29.80;66.80
35746;DHT22;21870;42.812;74.628;2022-07-21T02:18:41;29.90;65.60
35746;DHT22;21870;42.812;74.628;2022-07-21T02:21:08;30.00;64.90
35746;DHT22;21870;42.812;74.628;2022-07-21T02:23:34;30.20;65.10
35746;DHT22;21870;42.812;74.628;2022-07-21T02:26:00;30.30;64.90
35746;DHT22;21870;42.812;74.628;2022-07-21T02:28:27;30.40;70.10
35746;DHT22;21870;42.812;74.628;2022-07-21T02:30:54;30.60;73.10
35746;DHT22;21870;42.812;74.628;2022-07-21T02:33:20;30.70;75.00
35746;DHT22;21870;42.812;74.628;2022-07-21T02:35:46;30.90;70.90
35746;DHT22;21870;42.812;74.628;2022-07-21T02:38:12;31.00;71.70
35746;DHT22;21870;42.812;74.628;2022-07-21T02:40:39;31.10;69.90
35746;DHT22;21870;42.812;74.628;2022-07-21T02:43:05;31.20;71.00
35746;DHT22;21870;42.812;74.628;2022-07-21T02:45:33;31.20;68.50
35746;DHT22;21870;42.812;74.628;2022-07-21T02:48:05;31.40;72.00
35746;DHT22;21870;42.812;74.628;2022-07-21T02:50:34;31.50;73.60
35746;DHT22;21870;42.812;74.628;2022-07-21T02:53:03;31.60;72.60
35746;DHT22;21870;42.812;74.628;2022-07-21T02:55:30;31.80;72.80
35746;DHT22;21870;42.812;74.628;2022-07-21T02:58:16;31.80;73.30
35746;DHT22;21870;42.812;74.628;2022-07-21T03:00:45;31.90;73.40
35746;DHT22;21870;42.812;74.628;2022-07-21T03:03:13;32.00;71.90
35746;DHT22;21870;42.812;74.628;2022-07-21T03:05:40;32.20;70.90
35746;DHT22;21870;42.812;74.628;2022-07-21T03:08:07;32.10;76.40
35746;DHT22;21870;42.812;74.628;2022-07-21T03:10:33;32.20;71.90
35746;DHT22;21870;42.812;74.628;2022-07-21T03:13:00;32.30;74.20
35746;DHT22;21870;42.812;74.628;2022-07-21T03:15:26;32.40;73.00
35746;DHT22;21870;42.812;74.628;2022-07-21T03:17:53;32.40;73.40
35746;DHT22;21870;42.812;74.628;2022-07-21T03:20:24;32.50;71.50
35746;DHT22;21870;42.812;74.628;2022-07-21T03:22:50;32.50;74.40
35746;DHT22;21870;42.812;74.628;2022-07-21T03:25:17;32.70;69.50
35746;DHT22;21870;42.812;74.628;2022-07-21T03:27:44;32.80;70.80
35746;DHT22;21870;42.812;74.628;2022-07-21T03:30:10;32.90;67.90
35746;DHT22;21870;42.812;74.628;2022-07-21T03:32:37;33.00;72.20
35746;DHT22;21870;42.812;74.628;2022-07-21T03:35:04;33.10;69.30
35746;DHT22;21870;42.812;74.628;2022-07-21T03:37:31;33.10;70.20
35746;DHT22;21870;42.812;74.628;2022-07-21T03:39:57;33.30;69.70
35746;DHT22;21870;42.812;74.628;2022-07-21T03:42:24;33.40;68.90
35746;DHT22;21870;42.812;74.628;2022-07-21T03:44:50;33.40;70.70
35746;DHT22;21870;42.812;74.628;2022-07-21T03:47:16;33.40;67.20
35746;DHT22;21870;42.812;74.628;2022-07-21T03:49:42;33.70;69.20
35746;DHT22;21870;42.812;74.628;2022-07-21T03:52:08;33.70;70.10
35746;DHT22;21870;42.812;74.628;2022-07-21T03:54:37;33.90;67.60
35746;DHT22;21870;42.812;74.628;2022-07-21T03:57:03;34.00;65.90
35746;DHT22;21870;42.812;74.628;2022-07-21T03:59:29;34.00;69.70
35746;DHT22;21870;42.812;74.628;2022-07-21T04:01:55;34.10;69.20
35746;DHT22;21870;42.812;74.628;2022-07-21T04:04:21;34.00;69.20
35746;DHT22;21870;42.812;74.628;2022-07-21T04:06:47;34.20;68.20
35746;DHT22;21870;42.812;74.628;2022-07-21T04:09:13;34.30;69.20
35746;DHT22;21870;42.812;74.628;2022-07-21T04:11:39;34.20;66.70
35746;DHT22;21870;42.812;74.628;2022-07-21T04:14:05;34.30;66.40
35746;DHT22;21870;42.812;74.628;2022-07-21T04:16:31;34.50;70.80
35746;DHT22;21870;42.812;74.628;2022-07-21T04:18:57;34.40;70.10
35746;DHT22;21870;42.812;74.628;2022-07-21T04:21:23;34.40;70.10
35746;DHT22;21870;42.812;74.628;2022-07-21T04:23:49;34.60;70.60
35746;DHT22;21870;42.812;74.628;2022-07-21T04:26:15;34.60;70.90
35746;DHT22;21870;42.812;74.628;2022-07-21T04:28:42;34.80;71.60
35746;DHT22;21870;42.812;74.628;2022-07-21T04:31:08;34.80;70.40
35746;DHT22;21870;42.812;74.628;2022-07-21T04:33:37;34.70;70.10
35746;DHT22;21870;42.812;74.628;2022-07-21T04:36:03;34.70;69.80
35746;DHT22;21870;42.812;74.628;2022-07-21T04:38:29;34.70;69.60
35746;DHT22;21870;42.812;74.628;2022-07-21T04:40:55;34.90;70.60
35746;DHT22;21870;42.812;74.628;2022-07-21T04:43:21;34.80;69.80
35746;DHT22;21870;42.812;74.628;2022-07-21T04:45:47;34.90;69.00
35746;DHT22;21870;42.812;74.628;2022-07-21T04:48:13;35.10;70.90
35746;DHT22;21870;42.812;74.628;2022-07-21T04:50:40;35.20;69.60
35746;DHT22;21870;42.812;74.628;2022-07-21T04:53:06;35.30;68.40
35746;DHT22;21870;42.812;74.628;2022-07-21T04:55:32;35.40;66.70
35746;DHT22;21870;42.812;74.628;2022-07-21T04:57:58;35.50;68.40
35746;DHT22;21870;42.812;74.628;2022-07-21T05:00:25;35.30;66.50
35746;DHT22;21870;42.812;74.628;2022-07-21T05:02:53;35.30;65.90
35746;DHT22;21870;42.812;74.628;2022-07-21T05:05:19;35.60;69.80
35746;DHT22;21870;42.812;74.628;2022-07-21T05:07:45;35.60;65.00
35746;DHT22;21870;42.812;74.628;2022-07-21T05:10:13;35.80;69.60
35746;DHT22;21870;42.812;74.628;2022-07-21T05:12:40;35.80;69.00
35746;DHT22;21870;42.812;74.628;2022-07-21T05:15:07;35.80;68.70
35746;DHT22;21870;42.812;74.628;2022-07-21T05:17:35;35.80;66.30
35746;DHT22;21870;42.812;74.628;2022-07-21T05:20:02;35.70;65.20
35746;DHT22;21870;42.812;74.628;2022-07-21T05:22:28;35.80;67.20
35746;DHT22;21870;42.812;74.628;2022-07-21T05:24:54;35.90;69.30
35746;DHT22;21870;42.812;74.628;2022-07-21T05:27:20;36.00;67.20
35746;DHT22;21870;42.812;74.628;2022-07-21T05:29:46;36.10;68.20
35746;DHT22;21870;42.812;74.628;2022-07-21T05:32:12;36.10;67.70
35746;DHT22;21870;42.812;74.628;2022-07-21T05:34:38;36.10;66.00
35746;DHT22;21870;42.812;74.628;2022-07-21T05:37:04;36.20;67.80
35746;DHT22;21870;42.812;74.628;2022-07-21T05:39:30;36.10;69.50
35746;DHT22;21870;42.812;74.628;2022-07-21T05:41:59;36.30;67.10
35746;DHT22;21870;42.812;74.628;2022-07-21T05:44:25;36.30;67.00
35746;DHT22;21870;42.812;74.628;2022-07-21T05:46:52;36.40;69.20
35746;DHT22;21870;42.812;74.628;2022-07-21T05:49:18;36.50;64.70
35746;DHT22;21870;42.812;74.628;2022-07-21T05:51:44;36.60;67.00
35746;DHT22;21870;42.812;74.628;2022-07-21T05:54:10;36.70;66.40
35746;DHT22;21870;42.812;74.628;2022-07-21T05:56:36;36.70;68.00
35746;DHT22;21870;42.812;74.628;2022-07-21T05:59:02;36.60;70.00
35746;DHT22;21870;42.812;74.628;2022-07-21T06:01:28;36.50;67.00
35746;DHT22;21870;42.812;74.628;2022-07-21T06:03:54;36.60;67.50
35746;DHT22;21870;42.812;74.628;2022-07-21T06:06:20;36.60;64.50
35746;DHT22;21870;42.812;74.628;2022-07-21T06:08:49;36.50;67.00
35746;DHT22;21870;42.812;74.628;2022-07-21T06:11:17;36.50;68.60
35746;DHT22;21870;42.812;74.628;2022-07-21T06:13:43;36.70;65.20
35746;DHT22;21870;42.812;74.628;2022-07-21T06:16:09;36.70;65.60
35746;DHT22;21870;42.812;74.628;2022-07-21T06:18:36;36.80;66.20
35746;DHT22;21870;42.812;74.628;2022-07-21T06:21:02;36.80;67.90
35746;DHT22;21870;42.812;74.628;2022-07-21T06:23:29;37.10;64.80
35746;DHT22;21870;42.812;74.628;2022-07-21T06:25:55;36.90;66.10
35746;DHT22;21870;42.812;74.628;2022-07-21T06:28:22;37.00;66.20
35746;DHT22;21870;42.812;74.628;2022-07-21T06:30:49;37.10;67.30
35746;DHT22;21870;42.812;74.628;2022-07-21T06:33:16;37.00;66.20
35746;DHT22;21870;42.812;74.628;2022-07-21T06:35:42;37.10;64.00
35746;DHT22;21870;42.812;74.628;2022-07-21T06:38:08;37.10;68.40
35746;DHT22;21870;42.812;74.628;2022-07-21T06:40:34;37.20;66.40
35746;DHT22;21870;42.812;74.628;2022-07-21T06:43:01;37.10;60.00
35746;DHT22;21870;42.812;74.628;2022-07-21T06:45:27;37.40;66.50
35746;DHT22;21870;42.812;74.628;2022-07-21T06:48:06;37.40;65.60
35746;DHT22;21870;42.812;74.628;2022-07-21T06:50:34;37.20;65.50
35746;DHT22;21870;42.812;74.628;2022-07-21T06:53:00;37.40;63.00
35746;DHT22;21870;42.812;74.628;2022-07-21T06:55:26;37.40;61.40
35746;DHT22;21870;42.812;74.628;2022-07-21T06:57:53;37.60;63.10
35746;DHT22;21870;42.812;74.628;2022-07-21T07:00:20;37.50;63.90
35746;DHT22;21870;42.812;74.628;2022-07-21T07:02:46;37.60;64.20
35746;DHT22;21870;42.812;74.628;2022-07-21T07:05:12;37.50;62.30
35746;DHT22;21870;42.812;74.628;2022-07-21T07:07:38;37.60;67.30
35746;DHT22;21870;42.812;74.628;2022-07-21T07:10:05;37.60;67.00
35746;DHT22;21870;42.812;74.628;2022-07-21T07:12:31;37.70;61.40
35746;DHT22;21870;42.812;74.628;2022-07-21T07:14:57;37.70;60.50
35746;DHT22;21870;42.812;74.628;2022-07-21T07:17:23;37.50;64.70
35746;DHT22;21870;42.812;74.628;2022-07-21T07:19:49;37.70;61.40
35746;DHT22;21870;42.812;74.628;2022-07-21T07:22:16;37.90;66.70
35746;DHT22;21870;42.812;74.628;2022-07-21T07:24:42;37.90;62.80
35746;DHT22;21870;42.812;74.628;2022-07-21T07:27:08;37.90;61.80
35746;DHT22;21870;42.812;74.628;2022-07-21T07:29:34;38.10;62.10
35746;DHT22;21870;42.812;74.628;2022-07-21T07:32:01;38.10;61.60
35746;DHT22;21870;42.812;74.628;2022-07-21T07:34:27;38.10;62.70
35746;DHT22;21870;42.812;74.628;2022-07-21T07:36:53;38.00;62.80
35746;DHT22;21870;42.812;74.628;2022-07-21T07:39:19;37.90;64.60
35746;DHT22;21870;42.812;74.628;2022-07-21T07:41:45;37.80;61.70
35746;DHT22;21870;42.812;74.628;2022-07-21T07:44:11;37.90;60.00
35746;DHT22;21870;42.812;74.628;2022-07-21T07:46:37;38.00;66.70
35746;DHT22;21870;42.812;74.628;2022-07-21T07:49:03;37.90;62.60
35746;DHT22;21870;42.812;74.628;2022-07-21T07:51:29;38.00;62.10
35746;DHT22;21870;42.812;74.628;2022-07-21T07:53:55;38.10;60.10
35746;DHT22;21870;42.812;74.628;2022-07-21T07:56:21;38.20;62.20
35746;DHT22;21870;42.812;74.628;2022-07-21T07:58:48;38.30;61.70
35746;DHT22;21870;42.812;74.628;2022-07-21T08:01:14;38.40;62.90
35746;DHT22;21870;42.812;74.628;2022-07-21T08:03:41;38.40;61.50
35746;DHT22;21870;42.812;74.628;2022-07-21T08:06:08;38.50;62.60
35746;DHT22;21870;42.812;74.628;2022-07-21T08:08:34;38.40;62.90
35746;DHT22;21870;42.812;74.628;2022-07-21T08:11:00;38.50;64.50
35746;DHT22;21870;42.812;74.628;2022-07-21T08:13:26;38.60;62.20
35746;DHT22;21870;42.812;74.628;2022-07-21T08:15:52;38.60;60.70
35746;DHT22;21870;42.812;74.628;2022-07-21T08:18:19;38.60;60.30
35746;DHT22;21870;42.812;74.628;2022-07-21T08:20:46;38.40;63.10
35746;DHT22;21870;42.812;74.628;2022-07-21T08:23:13;38.30;59.70
35746;DHT22;21870;42.812;74.628;2022-07-21T08:25:40;38.40;59.80
35746;DHT22;21870;42.812;74.628;2022-07-21T08:28:07;38.50;62.50
35746;DHT22;21870;42.812;74.628;2022-07-21T08:30:33;38.50;64.80
35746;DHT22;21870;42.812;74.628;2022-07-21T08:33:00;38.60;66.10
35746;DHT22;21870;42.812;74.628;2022-07-21T08:35:27;38.60;63.80
35746;DHT22;21870;42.812;74.628;2022-07-21T08:37:56;38.50;64.50
35746;DHT22;21870;42.812;74.628;2022-07-21T08:40:24;38.80;63.30
35746;DHT22;21870;42.812;74.628;2022-07-21T08:42:51;38.70;63.20
35746;DHT22;21870;42.812;74.628;2022-07-21T08:45:17;38.80;61.90
35746;DHT22;21870;42.812;74.628;2022-07-21T08:47:44;38.60;61.20
35746;DHT22;21870;42.812;74.628;2022-07-21T08:50:13;38.50;60.20
35746;DHT22;21870;42.812;74.628;2022-07-21T08:52:39;38.40;65.60
35746;DHT22;21870;42.812;74.628;2022-07-21T08:55:05;38.60;63.30
35746;DHT22;21870;42.812;74.628;2022-07-21T08:57:32;38.70;60.80
35746;DHT22;21870;42.812;74.628;2022-07-21T08:59:58;38.80;61.70
35746;DHT22;21870;42.812;74.628;2022-07-21T09:02:32;38.60;60.60
35746;DHT22;21870;42.812;74.628;2022-07-21T09:04:59;38.40;60.60
35746;DHT22;21870;42.812;74.628;2022-07-21T09:07:26;38.20;61.60
35746;DHT22;21870;42.812;74.628;2022-07-21T09:10:02;38.20;63.20
35746;DHT22;21870;42.812;74.628;2022-07-21T09:12:29;38.30;65.00
35746;DHT22;21870;42.812;74.628;2022-07-21T09:15:15;38.40;62.90
35746;DHT22;21870;42.812;74.628;2022-07-21T09:17:41;38.50;62.90
35746;DHT22;21870;42.812;74.628;2022-07-21T09:20:23;38.70;61.00
35746;DHT22;21870;42.812;74.628;2022-07-21T09:23:10;38.60;59.60
35746;DHT22;21870;42.812;74.628;2022-07-21T09:25:43;38.80;58.60
35746;DHT22;21870;42.812;74.628;2022-07-21T09:28:20;38.80;58.60
35746;DHT22;21870;42.812;74.628;2022-07-21T09:30:59;38.90;61.90
35746;DHT22;21870;42.812;74.628;2022-07-21T09:38:31;38.80;64.20
35746;DHT22;21870;42.812;74.628;2022-07-21T09:41:12;38.80;61.80
35746;DHT22;21870;42.812;74.628;2022-07-21T09:43:49;38.70;61.50
35746;DHT22;21870;42.812;74.628;2022-07-21T09:48:43;38.70;60.40
35746;DHT22;21870;42.812;74.628;2022-07-21T09:51:29;38.60;61.40
35746;DHT22;21870;42.812;74.628;2022-07-21T09:54:01;38.40;61.10
35746;DHT22;21870;42.812;74.628;2022-07-21T09:56:31;38.50;62.70
35746;DHT22;21870;42.812;74.628;2022-07-21T09:58:58;38.60;61.80
35746;DHT22;21870;42.812;74.628;2022-07-21T10:01:26;38.70;62.60
35746;DHT22;21870;42.812;74.628;2022-07-21T10:03:53;38.80;60.20
35746;DHT22;21870;42.812;74.628;2022-07-21T10:06:29;38.70;59.90
35746;DHT22;21870;42.812;74.628;2022-07-21T10:08:57;38.60;60.40
35746;DHT22;21870;42.812;74.628;2022-07-21T10:11:24;38.60;61.10
35746;DHT22;21870;42.812;74.628;2022-07-21T10:13:51;38.40;60.10
35746;DHT22;21870;42.812;74.628;2022-07-21T10:16:17;38.40;65.00
35746;DHT22;21870;42.812;74.628;2022-07-21T10:24:06;38.30;62.30
35746;DHT22;21870;42.812;74.628;2022-07-21T10:26:35;38.20;64.70
35746;DHT22;21870;42.812;74.628;2022-07-21T10:29:01;38.30;62.90
35746;DHT22;21870;42.812;74.628;2022-07-21T10:31:27;38.40;65.20
35746;DHT22;21870;42.812;74.628;2022-07-21T10:34:00;38.40;60.00
35746;DHT22;21870;42.812;74.628;2022-07-21T10:55:17;37.70;61.20
35746;DHT22;21870;42.812;74.628;2022-07-21T11:00:35;37.40;62.70
35746;DHT22;21870;42.812;74.628;2022-07-21T11:03:14;37.50;61.70
35746;DHT22;21870;42.812;74.628;2022-07-21T11:06:14;37.60;59.80
35746;DHT22;21870;42.812;74.628;2022-07-21T11:08:52;37.60;62.30
35746;DHT22;21870;42.812;74.628;2022-07-21T11:11:23;37.80;60.40
35746;DHT22;21870;42.812;74.628;2022-07-21T11:19:29;37.50;60.40
35746;DHT22;21870;42.812;74.628;2022-07-21T11:21:59;37.40;59.90
35746;DHT22;21870;42.812;74.628;2022-07-21T11:24:27;37.40;59.40
35746;DHT22;21870;42.812;74.628;2022-07-21T11:26:57;37.50;59.90
35746;DHT22;21870;42.812;74.628;2022-07-21T11:29:24;37.40;59.10
35746;DHT22;21870;42.812;74.628;2022-07-21T11:31:51;37.30;59.70
35746;DHT22;21870;42.812;74.628;2022-07-21T11:34:18;37.00;59.50
35746;DHT22;21870;42.812;74.628;2022-07-21T11:36:44;37.10;58.50
35746;DHT22;21870;42.812;74.628;2022-07-21T11:39:13;37.10;58.50
35746;DHT22;21870;42.812;74.628;2022-07-21T11:41:43;37.10;57.70
35746;DHT22;21870;42.812;74.628;2022-07-21T11:44:10;37.10;58.70
35746;DHT22;21870;42.812;74.628;2022-07-21T11:46:57;37.00;59.30
35746;DHT22;21870;42.812;74.628;2022-07-21T11:49:23;36.90;59.70
35746;DHT22;21870;42.812;74.628;2022-07-21T11:51:55;36.80;59.20
35746;DHT22;21870;42.812;74.628;2022-07-21T11:54:25;36.70;58.40
35746;DHT22;21870;42.812;74.628;2022-07-21T11:56:53;36.70;58.40
35746;DHT22;21870;42.812;74.628;2022-07-21T11:59:20;36.60;59.90
35746;DHT22;21870;42.812;74.628;2022-07-21T12:01:51;36.40;60.10
35746;DHT22;21870;42.812;74.628;2022-07-21T12:04:35;36.40;59.30
35746;DHT22;21870;42.812;74.628;2022-07-21T12:07:05;36.30;60.10
35746;DHT22;21870;42.812;74.628;2022-07-21T12:09:32;36.20;58.10
35746;DHT22;21870;42.812;74.628;2022-07-21T12:11:59;36.10;57.50
35746;DHT22;21870;42.812;74.628;2022-07-21T12:14:48;36.00;58.10
35746;DHT22;21870;42.812;74.628;2022-07-21T12:17:32;36.00;57.20
35746;DHT22;21870;42.812;74.628;2022-07-21T12:19:59;35.90;58.00
35746;DHT22;21870;42.812;74.628;2022-07-21T12:22:45;35.80;59.30
35746;DHT22;21870;42.812;74.628;2022-07-21T12:25:17;35.80;57.90
35746;DHT22;21870;42.812;74.628;2022-07-21T12:27:46;35.80;57.20
35746;DHT22;21870;42.812;74.628;2022-07-21T12:33:12;35.60;56.50
35746;DHT22;21870;42.812;74.628;2022-07-21T12:35:40;35.50;57.50
35746;DHT22;21870;42.812;74.628;2022-07-21T12:38:12;35.50;58.00
35746;DHT22;21870;42.812;74.628;2022-07-21T12:40:41;35.50;57.10
35746;DHT22;21870;42.812;74.628;2022-07-21T12:43:12;35.50;56.10
35746;DHT22;21870;42.812;74.628;2022-07-21T12:48:20;35.40;57.10
35746;DHT22;21870;42.812;74.628;2022-07-21T12:51:08;35.30;56.30
35746;DHT22;21870;42.812;74.628;2022-07-21T12:53:44;35.20;56.70
35746;DHT22;21870;42.812;74.628;2022-07-21T12:56:13;35.30;56.20
35746;DHT22;21870;42.812;74.628;2022-07-21T12:58:39;35.20;56.70
35746;DHT22;21870;42.812;74.628;2022-07-21T13:01:06;35.20;59.10
35746;DHT22;21870;42.812;74.628;2022-07-21T13:03:33;35.10;56.60
35746;DHT22;21870;42.812;74.628;2022-07-21T13:06:01;35.10;56.00
35746;DHT22;21870;42.812;74.628;2022-07-21T13:08:27;35.10;55.90
35746;DHT22;21870;42.812;74.628;2022-07-21T13:10:54;35.10;56.30
35746;DHT22;21870;42.812;74.628;2022-07-21T13:13:20;35.00;56.00
35746;DHT22;21870;42.812;74.628;2022-07-21T13:18:21;35.00;55.90
35746;DHT22;21870;42.812;74.628;2022-07-21T13:20:51;34.90;56.30
35746;DHT22;21870;42.812;74.628;2022-07-21T13:23:18;34.90;55.50
35746;DHT22;21870;42.812;74.628;2022-07-21T13:25:44;34.80;55.40
35746;DHT22;21870;42.812;74.628;2022-07-21T13:28:10;34.80;55.30
35746;DHT22;21870;42.812;74.628;2022-07-21T13:30:36;34.80;55.20
35746;DHT22;21870;42.812;74.628;2022-07-21T13:33:02;34.80;55.10
35746;DHT22;21870;42.812;74.628;2022-07-21T13:35:28;34.70;55.30
35746;DHT22;21870;42.812;74.628;2022-07-21T13:37:55;34.70;55.50
35746;DHT22;21870;42.812;74.628;2022-07-21T13:40:21;34.60;55.50
35746;DHT22;21870;42.812;74.628;2022-07-21T13:42:48;34.60;57.50
35746;DHT22;21870;42.812;74.628;2022-07-21T13:45:14;34.50;57.40
35746;DHT22;21870;42.812;74.628;2022-07-21T13:47:42;34.40;56.10
35746;DHT22;21870;42.812;74.628;2022-07-21T13:50:08;34.40;56.50
35746;DHT22;21870;42.812;74.628;2022-07-21T13:52:34;34.40;56.90
35746;DHT22;21870;42.812;74.628;2022-07-21T13:55:01;34.30;56.80
35746;DHT22;21870;42.812;74.628;2022-07-21T13:57:28;34.30;56.80
35746;DHT22;21870;42.812;74.628;2022-07-21T13:59:54;34.20;57.30
35746;DHT22;21870;42.812;74.628;2022-07-21T14:02:20;34.10;57.70
35746;DHT22;21870;42.812;74.628;2022-07-21T14:04:46;34.10;57.40
35746;DHT22;21870;42.812;74.628;2022-07-21T14:07:12;33.90;57.30
35746;DHT22;21870;42.812;74.628;2022-07-21T14:09:43;33.80;57.80
35746;DHT22;21870;42.812;74.628;2022-07-21T14:12:10;33.70;57.80
35746;DHT22;21870;42.812;74.628;2022-07-21T14:14:39;33.50;57.70
35746;DHT22;21870;42.812;74.628;2022-07-21T14:17:06;33.40;57.60
35746;DHT22;21870;42.812;74.628;2022-07-21T14:19:32;33.30;57.60
35746;DHT22;21870;42.812;74.628;2022-07-21T14:21:58;33.20;57.60
35746;DHT22;21870;42.812;74.628;2022-07-21T14:24:24;33.10;57.60
35746;DHT22;21870;42.812;74.628;2022-07-21T14:27:08;33.00;57.80
35746;DHT22;21870;42.812;74.628;2022-07-21T14:29:35;32.80;58.00
35746;DHT22;21870;42.812;74.628;2022-07-21T14:32:01;32.80;58.20
35746;DHT22;21870;42.812;74.628;2022-07-21T14:34:27;32.70;58.30
35746;DHT22;21870;42.812;74.628;2022-07-21T14:36:53;32.50;58.60
35746;DHT22;21870;42.812;74.628;2022-07-21T14:39:19;32.50;59.00
35746;DHT22;21870;42.812;74.628;2022-07-21T14:41:45;32.30;59.80
35746;DHT22;21870;42.812;74.628;2022-07-21T14:44:12;32.30;59.00
35746;DHT22;21870;42.812;74.628;2022-07-21T14:46:38;32.10;59.30
35746;DHT22;21870;42.812;74.628;2022-07-21T14:49:04;32.00;60.00
35746;DHT22;21870;42.812;74.628;2022-07-21T14:51:30;31.90;60.50
35746;DHT22;21870;42.812;74.628;2022-07-21T14:53:56;31.80;60.80
35746;DHT22;21870;42.812;74.628;2022-07-21T14:56:22;31.70;60.90
35746;DHT22;21870;42.812;74.628;2022-07-21T14:58:48;31.60;60.80
35746;DHT22;21870;42.812;74.628;2022-07-21T15:01:14;31.60;61.20
35746;DHT22;21870;42.812;74.628;2022-07-21T15:03:40;31.50;61.40
35746;DHT22;21870;42.812;74.628;2022-07-21T15:06:08;31.30;61.30
35746;DHT22;21870;42.812;74.628;2022-07-21T15:08:34;30.90;62.10
35746;DHT22;21870;42.812;74.628;2022-07-21T15:11:00;30.80;63.10
35746;DHT22;21870;42.812;74.628;2022-07-21T15:13:26;30.50;64.10
35746;DHT22;21870;42.812;74.628;2022-07-21T15:15:57;30.30;65.80
35746;DHT22;21870;42.812;74.628;2022-07-21T15:18:23;30.20;66.20
35746;DHT22;21870;42.812;74.628;2022-07-21T15:20:49;30.00;66.60
35746;DHT22;21870;42.812;74.628;2022-07-21T15:23:15;29.90;66.80
35746;DHT22;21870;42.812;74.628;2022-07-21T15:25:41;29.80;67.10
35746;DHT22;21870;42.812;74.628;2022-07-21T15:28:07;29.70;67.00
35746;DHT22;21870;42.812;74.628;2022-07-21T15:30:34;29.70;67.60
35746;DHT22;21870;42.812;74.628;2022-07-21T15:33:00;29.60;67.70
35746;DHT22;21870;42.812;74.628;2022-07-21T15:35:26;29.50;67.80
35746;DHT22;21870;42.812;74.628;2022-07-21T15:37:52;29.50;67.80
35746;DHT22;21870;42.812;74.628;2022-07-21T15:40:18;29.50;67.90
35746;DHT22;21870;42.812;74.628;2022-07-21T15:42:44;29.40;67.80
35746;DHT22;21870;42.812;74.628;2022-07-21T15:45:14;29.40;67.90
35746;DHT22;21870;42.812;74.628;2022-07-21T15:47:40;29.40;68.30
35746;DHT22;21870;42.812;74.628;2022-07-21T15:50:07;29.30;68.30
35746;DHT22;21870;42.812;74.628;2022-07-21T15:52:34;29.20;68.50
35746;DHT22;21870;42.812;74.628;2022-07-21T15:55:04;29.30;68.60
35746;DHT22;21870;42.812;74.628;2022-07-21T15:57:31;29.30;68.50
35746;DHT22;21870;42.812;74.628;2022-07-21T15:59:58;29.20;68.80
35746;DHT22;21870;42.812;74.628;2022-07-21T16:02:24;29.20;69.00
35746;DHT22;21870;42.812;74.628;2022-07-21T16:04:51;29.20;69.10
35746;DHT22;21870;42.812;74.628;2022-07-21T16:07:17;29.00;69.30